sensor_id;sensor_type;location;lat;lon;timestamp;P1;durP1;ratioP1;P2;durP2;ratioP2
64959;SDS011;51487;52.266;10.542;2023-06-19T00:01:18;3.85;;;3.45;;
64959;SDS011;51487;52.266;10.542;2023-06-19T00:03:43;4.80;;;3.50;;
64959;SDS011;51487;52.266;10.542;2023-06-19T00:06:09;4.53;;;3.60;;
64959;SDS011;51487;52.266;10.542;2023-06-19T00:08:37;4.60;;;3.88;;
64959;SDS011;51487;52.266;10.542;2023-06-19T00:11:02;4.47;;;3.67;;
64959;SDS011;51487;52.266;10.542;2023-06-19T00:13:28;6.55;;;3.50;;
64959;SDS011;51487;52.266;10.542;2023-06-19T00:15:54;3.95;;;3.42;;
64959;SDS011;51487;52.266;10.542;2023-06-19T00:18:20;4.38;;;3.58;;
64959;SDS011;51487;52.266;10.542;2023-06-19T00:20:45;5.72;;;3.58;;
64959;SDS011;51487;52.266;10.542;2023-06-19T00:23:11;5.82;;;3.60;;
64959;SDS011;51487;52.266;10.542;2023-06-19T00:25:42;6.45;;;3.72;;
64959;SDS011;51487;52.266;10.542;2023-06-19T00:28:09;4.80;;;3.70;;
64959;SDS011;51487;52.266;10.542;2023-06-19T00:30:36;6.00;;;3.80;;
64959;SDS011;51487;52.266;10.542;2023-06-19T00:33:03;4.82;;;3.55;;
64959;SDS011;51487;52.266;10.542;2023-06-19T00:35:29;6.28;;;3.70;;
64959;SDS011;51487;52.266;10.542;2023-06-19T00:37:55;4.93;;;3.72;;
64959;SDS011;51487;52.266;10.542;2023-06-19T00:40:30;4.65;;;3.65;;
64959;SDS011;51487;52.266;10.542;2023-06-19T00:42:57;6.80;;;3.97;;
64959;SDS011;51487;52.266;10.542;2023-06-19T00:45:23;5.45;;;3.65;;
64959;SDS011;51487;52.266;10.542;2023-06-19T00:47:50;6.07;;;3.97;;
64959;SDS011;51487;52.266;10.542;2023-06-19T00:50:18;4.75;;;3.50;;
64959;SDS011;51487;52.266;10.542;2023-06-19T00:52:44;3.88;;;3.47;;
64959;SDS011;51487;52.266;10.542;2023-06-19T00:55:09;5.82;;;3.70;;
64959;SDS011;51487;52.266;10.542;2023-06-19T00:57:36;4.85;;;3.10;;
64959;SDS011;51487;52.266;10.542;2023-06-19T01:00:03;4.00;;;3.13;;
64959;SDS011;51487;52.266;10.542;2023-06-19T01:02:31;3.70;;;3.22;;
64959;SDS011;51487;52.266;10.542;2023-06-19T01:04:57;4.13;;;3.13;;
64959;SDS011;51487;52.266;10.542;2023-06-19T01:07:26;4.95;;;3.40;;
64959;SDS011;51487;52.266;10.542;2023-06-19T01:10:08;3.55;;;3.10;;
64959;SDS011;51487;52.266;10.542;2023-06-19T01:12:42;4.40;;;3.45;;
64959;SDS011;51487;52.266;10.542;2023-06-19T01:15:57;6.35;;;3.30;;
64959;SDS011;51487;52.266;10.542;2023-06-19T01:18:24;5.32;;;3.53;;
64959;SDS011;51487;52.266;10.542;2023-06-19T01:20:52;5.90;;;3.53;;
64959;SDS011;51487;52.266;10.542;2023-06-19T01:23:17;5.10;;;3.90;;
64959;SDS011;51487;52.266;10.542;2023-06-19T01:25:43;4.18;;;3.67;;
64959;SDS011;51487;52.266;10.542;2023-06-19T01:28:09;6.35;;;3.42;;
64959;SDS011;51487;52.266;10.542;2023-06-19T01:30:37;4.25;;;3.40;;
64959;SDS011;51487;52.266;10.542;2023-06-19T01:35:48;4.30;;;3.60;;
64959;SDS011;51487;52.266;10.542;2023-06-19T01:38:15;3.90;;;3.47;;
64959;SDS011;51487;52.266;10.542;2023-06-19T01:40:42;5.43;;;3.42;;
64959;SDS011;51487;52.266;10.542;2023-06-19T01:43:08;4.63;;;3.70;;
64959;SDS011;51487;52.266;10.542;2023-06-19T01:45:35;4.63;;;3.60;;
64959;SDS011;51487;52.266;10.542;2023-06-19T01:48:01;3.80;;;3.35;;
64959;SDS011;51487;52.266;10.542;2023-06-19T01:50:27;4.32;;;3.40;;
64959;SDS011;51487;52.266;10.542;2023-06-19T01:52:53;5.85;;;3.80;;
64959;SDS011;51487;52.266;10.542;2023-06-19T01:55:19;4.68;;;3.65;;
64959;SDS011;51487;52.266;10.542;2023-06-19T01:57:45;5.43;;;3.53;;
64959;SDS011;51487;52.266;10.542;2023-06-19T02:00:11;5.00;;;3.80;;
64959;SDS011;51487;52.266;10.542;2023-06-19T02:02:37;5.00;;;3.30;;
64959;SDS011;51487;52.266;10.542;2023-06-19T02:05:03;4.20;;;3.25;;
64959;SDS011;51487;52.266;10.542;2023-06-19T02:07:29;4.15;;;3.53;;
64959;SDS011;51487;52.266;10.542;2023-06-19T02:09:56;4.65;;;3.60;;
64959;SDS011;51487;52.266;10.542;2023-06-19T02:12:22;4.20;;;3.60;;
64959;SDS011;51487;52.266;10.542;2023-06-19T02:14:48;4.95;;;3.63;;
64959;SDS011;51487;52.266;10.542;2023-06-19T02:17:14;4.10;;;3.70;;
64959;SDS011;51487;52.266;10.542;2023-06-19T02:19:40;4.55;;;3.67;;
64959;SDS011;51487;52.266;10.542;2023-06-19T02:22:06;5.78;;;3.65;;
64959;SDS011;51487;52.266;10.542;2023-06-19T02:24:32;4.88;;;3.90;;
64959;SDS011;51487;52.266;10.542;2023-06-19T02:26:58;6.45;;;3.70;;
64959;SDS011;51487;52.266;10.542;2023-06-19T02:29:24;3.90;;;3.50;;
64959;SDS011;51487;52.266;10.542;2023-06-19T02:31:50;4.60;;;3.80;;
64959;SDS011;51487;52.266;10.542;2023-06-19T02:34:16;5.07;;;3.90;;
64959;SDS011;51487;52.266;10.542;2023-06-19T02:36:42;4.35;;;3.90;;
64959;SDS011;51487;52.266;10.542;2023-06-19T02:39:08;4.75;;;4.13;;
64959;SDS011;51487;52.266;10.542;2023-06-19T02:41:34;4.40;;;3.78;;
64959;SDS011;51487;52.266;10.542;2023-06-19T02:44:00;5.50;;;3.80;;
64959;SDS011;51487;52.266;10.542;2023-06-19T02:46:25;5.57;;;3.75;;
64959;SDS011;51487;52.266;10.542;2023-06-19T02:48:51;6.00;;;3.92;;
64959;SDS011;51487;52.266;10.542;2023-06-19T02:51:17;5.70;;;3.83;;
64959;SDS011;51487;52.266;10.542;2023-06-19T02:53:42;6.57;;;3.75;;
64959;SDS011;51487;52.266;10.542;2023-06-19T02:56:09;5.22;;;3.60;;
64959;SDS011;51487;52.266;10.542;2023-06-19T02:58:36;5.93;;;4.13;;
64959;SDS011;51487;52.266;10.542;2023-06-19T03:01:02;5.22;;;4.20;;
64959;SDS011;51487;52.266;10.542;2023-06-19T03:03:28;7.18;;;4.20;;
64959;SDS011;51487;52.266;10.542;2023-06-19T03:05:55;5.30;;;3.97;;
64959;SDS011;51487;52.266;10.542;2023-06-19T03:08:21;4.95;;;4.18;;
64959;SDS011;51487;52.266;10.542;2023-06-19T03:10:46;5.63;;;4.20;;
64959;SDS011;51487;52.266;10.542;2023-06-19T03:13:12;4.90;;;3.90;;
64959;SDS011;51487;52.266;10.542;2023-06-19T03:15:38;4.63;;;3.80;;
64959;SDS011;51487;52.266;10.542;2023-06-19T03:18:04;4.63;;;3.97;;
64959;SDS011;51487;52.266;10.542;2023-06-19T03:20:32;7.20;;;4.15;;
64959;SDS011;51487;52.266;10.542;2023-06-19T03:22:58;5.28;;;3.92;;
64959;SDS011;51487;52.266;10.542;2023-06-19T03:25:23;5.25;;;4.07;;
64959;SDS011;51487;52.266;10.542;2023-06-19T03:27:49;6.25;;;3.95;;
64959;SDS011;51487;52.266;10.542;2023-06-19T03:30:14;5.30;;;4.10;;
64959;SDS011;51487;52.266;10.542;2023-06-19T03:32:43;6.38;;;3.92;;
64959;SDS011;51487;52.266;10.542;2023-06-19T03:35:09;5.07;;;4.03;;
64959;SDS011;51487;52.266;10.542;2023-06-19T03:37:35;6.82;;;3.97;;
64959;SDS011;51487;52.266;10.542;2023-06-19T03:40:01;6.55;;;3.88;;
64959;SDS011;51487;52.266;10.542;2023-06-19T03:42:28;9.60;;;4.30;;
64959;SDS011;51487;52.266;10.542;2023-06-19T03:44:54;5.10;;;4.15;;
64959;SDS011;51487;52.266;10.542;2023-06-19T03:47:21;5.70;;;3.83;;
64959;SDS011;51487;52.266;10.542;2023-06-19T03:49:46;5.03;;;4.25;;
64959;SDS011;51487;52.266;10.542;2023-06-19T03:52:13;6.07;;;4.22;;
64959;SDS011;51487;52.266;10.542;2023-06-19T03:54:39;6.93;;;4.25;;
64959;SDS011;51487;52.266;10.542;2023-06-19T03:57:05;5.68;;;4.50;;
64959;SDS011;51487;52.266;10.542;2023-06-19T03:59:31;5.13;;;3.88;;
64959;SDS011;51487;52.266;10.542;2023-06-19T04:01:57;5.68;;;3.90;;
64959;SDS011;51487;52.266;10.542;2023-06-19T04:04:22;5.93;;;4.50;;
64959;SDS011;51487;52.266;10.542;2023-06-19T04:06:48;7.03;;;4.50;;
64959;SDS011;51487;52.266;10.542;2023-06-19T04:09:13;6.05;;;3.95;;
64959;SDS011;51487;52.266;10.542;2023-06-19T04:11:39;5.38;;;4.10;;
64959;SDS011;51487;52.266;10.542;2023-06-19T04:14:04;5.65;;;4.35;;
64959;SDS011;51487;52.266;10.542;2023-06-19T04:16:30;7.47;;;4.20;;
64959;SDS011;51487;52.266;10.542;2023-06-19T04:18:55;5.25;;;4.00;;
64959;SDS011;51487;52.266;10.542;2023-06-19T04:21:21;4.55;;;3.92;;
64959;SDS011;51487;52.266;10.542;2023-06-19T04:23:46;5.18;;;4.50;;
64959;SDS011;51487;52.266;10.542;2023-06-19T04:26:12;5.13;;;4.10;;
64959;SDS011;51487;52.266;10.542;2023-06-19T04:28:37;8.35;;;4.32;;
64959;SDS011;51487;52.266;10.542;2023-06-19T04:31:04;5.43;;;4.20;;
64959;SDS011;51487;52.266;10.542;2023-06-19T04:33:30;4.78;;;4.07;;
64959;SDS011;51487;52.266;10.542;2023-06-19T04:35:57;5.72;;;4.57;;
64959;SDS011;51487;52.266;10.542;2023-06-19T04:38:22;5.80;;;4.63;;
64959;SDS011;51487;52.266;10.542;2023-06-19T04:40:49;5.25;;;4.55;;
64959;SDS011;51487;52.266;10.542;2023-06-19T04:43:16;6.50;;;3.97;;
64959;SDS011;51487;52.266;10.542;2023-06-19T04:45:42;5.20;;;4.47;;
64959;SDS011;51487;52.266;10.542;2023-06-19T04:48:07;6.03;;;4.55;;
64959;SDS011;51487;52.266;10.542;2023-06-19T04:50:33;5.28;;;4.13;;
64959;SDS011;51487;52.266;10.542;2023-06-19T04:52:59;5.78;;;4.28;;
64959;SDS011;51487;52.266;10.542;2023-06-19T04:55:24;7.57;;;4.93;;
64959;SDS011;51487;52.266;10.542;2023-06-19T04:57:50;6.95;;;4.20;;
64959;SDS011;51487;52.266;10.542;2023-06-19T05:00:16;4.80;;;4.28;;
64959;SDS011;51487;52.266;10.542;2023-06-19T05:02:44;7.85;;;4.55;;
64959;SDS011;51487;52.266;10.542;2023-06-19T05:05:12;4.95;;;4.13;;
64959;SDS011;51487;52.266;10.542;2023-06-19T05:07:38;5.55;;;4.20;;
64959;SDS011;51487;52.266;10.542;2023-06-19T05:10:04;5.80;;;4.57;;
64959;SDS011;51487;52.266;10.542;2023-06-19T05:12:31;7.43;;;4.40;;
64959;SDS011;51487;52.266;10.542;2023-06-19T05:14:57;8.18;;;4.63;;
64959;SDS011;51487;52.266;10.542;2023-06-19T05:17:22;9.05;;;4.35;;
64959;SDS011;51487;52.266;10.542;2023-06-19T05:19:48;7.75;;;4.15;;
64959;SDS011;51487;52.266;10.542;2023-06-19T05:22:14;7.07;;;4.60;;
64959;SDS011;51487;52.266;10.542;2023-06-19T05:24:40;5.63;;;4.50;;
64959;SDS011;51487;52.266;10.542;2023-06-19T05:27:05;5.50;;;4.10;;
64959;SDS011;51487;52.266;10.542;2023-06-19T05:29:31;8.85;;;4.60;;
64959;SDS011;51487;52.266;10.542;2023-06-19T05:31:57;7.63;;;4.90;;
64959;SDS011;51487;52.266;10.542;2023-06-19T05:34:23;7.95;;;4.78;;
64959;SDS011;51487;52.266;10.542;2023-06-19T05:36:48;10.45;;;4.72;;
64959;SDS011;51487;52.266;10.542;2023-06-19T05:39:14;6.28;;;4.88;;
64959;SDS011;51487;52.266;10.542;2023-06-19T05:41:39;8.57;;;4.57;;
64959;SDS011;51487;52.266;10.542;2023-06-19T05:44:06;8.43;;;5.00;;
64959;SDS011;51487;52.266;10.542;2023-06-19T05:46:32;6.85;;;4.60;;
64959;SDS011;51487;52.266;10.542;2023-06-19T05:48:57;8.98;;;4.78;;
64959;SDS011;51487;52.266;10.542;2023-06-19T05:51:23;7.20;;;5.32;;
64959;SDS011;51487;52.266;10.542;2023-06-19T05:53:48;7.38;;;5.20;;
64959;SDS011;51487;52.266;10.542;2023-06-19T05:56:14;6.50;;;4.75;;
64959;SDS011;51487;52.266;10.542;2023-06-19T05:58:41;7.07;;;5.28;;
64959;SDS011;51487;52.266;10.542;2023-06-19T06:01:06;5.68;;;5.07;;
64959;SDS011;51487;52.266;10.542;2023-06-19T06:03:32;8.13;;;6.20;;
64959;SDS011;51487;52.266;10.542;2023-06-19T06:05:58;7.32;;;5.60;;
64959;SDS011;51487;52.266;10.542;2023-06-19T06:08:30;7.35;;;5.20;;
64959;SDS011;51487;52.266;10.542;2023-06-19T06:10:56;7.18;;;5.30;;
64959;SDS011;51487;52.266;10.542;2023-06-19T06:13:22;7.28;;;5.50;;
64959;SDS011;51487;52.266;10.542;2023-06-19T06:15:47;7.88;;;5.50;;
64959;SDS011;51487;52.266;10.542;2023-06-19T06:18:13;8.63;;;5.60;;
64959;SDS011;51487;52.266;10.542;2023-06-19T06:20:39;7.07;;;6.15;;
64959;SDS011;51487;52.266;10.542;2023-06-19T06:23:04;6.50;;;5.43;;
64959;SDS011;51487;52.266;10.542;2023-06-19T06:25:30;6.90;;;5.55;;
64959;SDS011;51487;52.266;10.542;2023-06-19T06:27:55;6.28;;;5.40;;
64959;SDS011;51487;52.266;10.542;2023-06-19T06:30:21;8.43;;;5.60;;
64959;SDS011;51487;52.266;10.542;2023-06-19T06:32:47;7.45;;;5.75;;
64959;SDS011;51487;52.266;10.542;2023-06-19T06:35:13;8.10;;;5.40;;
64959;SDS011;51487;52.266;10.542;2023-06-19T06:37:38;7.15;;;5.63;;
64959;SDS011;51487;52.266;10.542;2023-06-19T06:40:05;7.15;;;5.55;;
64959;SDS011;51487;52.266;10.542;2023-06-19T06:42:36;6.60;;;5.03;;
64959;SDS011;51487;52.266;10.542;2023-06-19T06:45:02;6.95;;;5.35;;
64959;SDS011;51487;52.266;10.542;2023-06-19T06:47:30;6.18;;;5.53;;
64959;SDS011;51487;52.266;10.542;2023-06-19T06:49:56;7.95;;;5.32;;
64959;SDS011;51487;52.266;10.542;2023-06-19T06:52:21;6.80;;;5.75;;
64959;SDS011;51487;52.266;10.542;2023-06-19T06:54:47;6.65;;;5.65;;
64959;SDS011;51487;52.266;10.542;2023-06-19T06:57:12;7.53;;;5.60;;
64959;SDS011;51487;52.266;10.542;2023-06-19T06:59:38;6.70;;;5.88;;
64959;SDS011;51487;52.266;10.542;2023-06-19T07:02:03;6.30;;;5.38;;
64959;SDS011;51487;52.266;10.542;2023-06-19T07:04:29;7.35;;;5.13;;
64959;SDS011;51487;52.266;10.542;2023-06-19T07:06:54;6.75;;;5.50;;
64959;SDS011;51487;52.266;10.542;2023-06-19T07:09:20;9.23;;;5.75;;
64959;SDS011;51487;52.266;10.542;2023-06-19T07:11:48;6.85;;;5.97;;
64959;SDS011;51487;52.266;10.542;2023-06-19T07:14:14;6.28;;;5.47;;
64959;SDS011;51487;52.266;10.542;2023-06-19T07:16:43;6.13;;;5.47;;
64959;SDS011;51487;52.266;10.542;2023-06-19T07:19:10;7.28;;;5.45;;
64959;SDS011;51487;52.266;10.542;2023-06-19T07:21:37;7.05;;;5.35;;
64959;SDS011;51487;52.266;10.542;2023-06-19T07:24:03;6.70;;;5.50;;
64959;SDS011;51487;52.266;10.542;2023-06-19T07:26:30;6.60;;;5.35;;
64959;SDS011;51487;52.266;10.542;2023-06-19T07:28:56;6.53;;;5.18;;
64959;SDS011;51487;52.266;10.542;2023-06-19T07:31:22;6.40;;;4.85;;
64959;SDS011;51487;52.266;10.542;2023-06-19T07:33:47;8.07;;;5.35;;
64959;SDS011;51487;52.266;10.542;2023-06-19T07:36:13;6.60;;;5.40;;
64959;SDS011;51487;52.266;10.542;2023-06-19T07:38:41;6.30;;;4.97;;
64959;SDS011;51487;52.266;10.542;2023-06-19T07:41:08;7.03;;;5.03;;
64959;SDS011;51487;52.266;10.542;2023-06-19T07:43:36;7.28;;;4.88;;
64959;SDS011;51487;52.266;10.542;2023-06-19T07:46:02;6.18;;;5.40;;
64959;SDS011;51487;52.266;10.542;2023-06-19T07:48:29;7.15;;;5.05;;
64959;SDS011;51487;52.266;10.542;2023-06-19T07:50:55;6.82;;;4.90;;
64959;SDS011;51487;52.266;10.542;2023-06-19T07:53:21;6.03;;;5.43;;
64959;SDS011;51487;52.266;10.542;2023-06-19T07:55:47;7.30;;;5.00;;
64959;SDS011;51487;52.266;10.542;2023-06-19T07:58:12;6.15;;;4.97;;
64959;SDS011;51487;52.266;10.542;2023-06-19T08:00:38;5.80;;;5.15;;
64959;SDS011;51487;52.266;10.542;2023-06-19T08:03:04;6.18;;;5.10;;
64959;SDS011;51487;52.266;10.542;2023-06-19T08:05:30;7.88;;;5.78;;
64959;SDS011;51487;52.266;10.542;2023-06-19T08:07:56;6.88;;;5.55;;
64959;SDS011;51487;52.266;10.542;2023-06-19T08:10:23;7.05;;;5.00;;
64959;SDS011;51487;52.266;10.542;2023-06-19T08:12:49;7.50;;;5.20;;
64959;SDS011;51487;52.266;10.542;2023-06-19T08:15:14;8.00;;;4.90;;
64959;SDS011;51487;52.266;10.542;2023-06-19T08:17:40;6.20;;;5.15;;
64959;SDS011;51487;52.266;10.542;2023-06-19T08:20:07;5.70;;;5.05;;
64959;SDS011;51487;52.266;10.542;2023-06-19T08:22:33;13.70;;;5.57;;
64959;SDS011;51487;52.266;10.542;2023-06-19T08:24:59;7.20;;;5.70;;
64959;SDS011;51487;52.266;10.542;2023-06-19T08:27:25;8.70;;;5.63;;
64959;SDS011;51487;52.266;10.542;2023-06-19T08:29:50;6.35;;;5.22;;
64959;SDS011;51487;52.266;10.542;2023-06-19T08:32:16;7.43;;;4.97;;
64959;SDS011;51487;52.266;10.542;2023-06-19T08:34:42;6.72;;;5.38;;
64959;SDS011;51487;52.266;10.542;2023-06-19T08:37:07;8.18;;;5.47;;
64959;SDS011;51487;52.266;10.542;2023-06-19T08:39:33;6.32;;;4.72;;
64959;SDS011;51487;52.266;10.542;2023-06-19T08:42:03;7.97;;;4.90;;
64959;SDS011;51487;52.266;10.542;2023-06-19T08:44:33;6.45;;;4.75;;
64959;SDS011;51487;52.266;10.542;2023-06-19T08:47:00;7.95;;;5.55;;
64959;SDS011;51487;52.266;10.542;2023-06-19T08:49:30;7.05;;;5.28;;
64959;SDS011;51487;52.266;10.542;2023-06-19T08:52:00;6.43;;;5.53;;
64959;SDS011;51487;52.266;10.542;2023-06-19T08:54:27;8.05;;;5.65;;
64959;SDS011;51487;52.266;10.542;2023-06-19T08:56:53;6.78;;;5.50;;
64959;SDS011;51487;52.266;10.542;2023-06-19T08:59:19;6.82;;;5.72;;
64959;SDS011;51487;52.266;10.542;2023-06-19T09:01:46;7.47;;;5.80;;
64959;SDS011;51487;52.266;10.542;2023-06-19T09:04:18;6.28;;;5.32;;
64959;SDS011;51487;52.266;10.542;2023-06-19T09:06:56;7.65;;;5.00;;
64959;SDS011;51487;52.266;10.542;2023-06-19T09:09:27;6.25;;;5.25;;
64959;SDS011;51487;52.266;10.542;2023-06-19T09:12:01;9.20;;;4.93;;
64959;SDS011;51487;52.266;10.542;2023-06-19T09:14:36;6.15;;;4.80;;
64959;SDS011;51487;52.266;10.542;2023-06-19T09:17:04;8.43;;;5.00;;
64959;SDS011;51487;52.266;10.542;2023-06-19T09:19:33;7.97;;;4.90;;
64959;SDS011;51487;52.266;10.542;2023-06-19T09:22:02;6.88;;;5.18;;
64959;SDS011;51487;52.266;10.542;2023-06-19T09:24:35;5.97;;;4.88;;
64959;SDS011;51487;52.266;10.542;2023-06-19T09:27:12;5.60;;;4.93;;
64959;SDS011;51487;52.266;10.542;2023-06-19T09:29:40;8.38;;;5.40;;
64959;SDS011;51487;52.266;10.542;2023-06-19T09:34:52;6.57;;;4.90;;
64959;SDS011;51487;52.266;10.542;2023-06-19T09:37:22;7.03;;;4.90;;
64959;SDS011;51487;52.266;10.542;2023-06-19T09:39:57;5.85;;;4.95;;
64959;SDS011;51487;52.266;10.542;2023-06-19T09:42:29;6.60;;;5.13;;
64959;SDS011;51487;52.266;10.542;2023-06-19T09:45:03;5.90;;;5.10;;
64959;SDS011;51487;52.266;10.542;2023-06-19T09:47:46;5.93;;;5.07;;
64959;SDS011;51487;52.266;10.542;2023-06-19T09:50:18;7.63;;;5.03;;
64959;SDS011;51487;52.266;10.542;2023-06-19T09:52:48;7.00;;;5.05;;
64959;SDS011;51487;52.266;10.542;2023-06-19T09:55:16;7.28;;;5.20;;
64959;SDS011;51487;52.266;10.542;2023-06-19T09:57:44;7.43;;;5.18;;
64959;SDS011;51487;52.266;10.542;2023-06-19T10:00:11;7.03;;;4.82;;
64959;SDS011;51487;52.266;10.542;2023-06-19T10:02:41;6.45;;;5.35;;
64959;SDS011;51487;52.266;10.542;2023-06-19T10:05:10;8.77;;;5.43;;
64959;SDS011;51487;52.266;10.542;2023-06-19T10:07:41;6.28;;;5.15;;
64959;SDS011;51487;52.266;10.542;2023-06-19T10:10:11;8.90;;;5.10;;
64959;SDS011;51487;52.266;10.542;2023-06-19T10:12:48;10.05;;;5.72;;
64959;SDS011;51487;52.266;10.542;2023-06-19T10:15:17;7.72;;;5.57;;
64959;SDS011;51487;52.266;10.542;2023-06-19T10:17:49;8.10;;;5.40;;
64959;SDS011;51487;52.266;10.542;2023-06-19T10:20:20;11.13;;;5.70;;
64959;SDS011;51487;52.266;10.542;2023-06-19T10:25:41;7.00;;;5.10;;
64959;SDS011;51487;52.266;10.542;2023-06-19T10:33:25;9.50;;;5.72;;
64959;SDS011;51487;52.266;10.542;2023-06-19T10:35:53;8.68;;;5.10;;
64959;SDS011;51487;52.266;10.542;2023-06-19T10:38:19;7.45;;;5.50;;
64959;SDS011;51487;52.266;10.542;2023-06-19T10:40:45;10.43;;;6.05;;
64959;SDS011;51487;52.266;10.542;2023-06-19T10:43:12;10.77;;;5.75;;
64959;SDS011;51487;52.266;10.542;2023-06-19T10:45:50;8.63;;;6.03;;
64959;SDS011;51487;52.266;10.542;2023-06-19T10:48:27;5.65;;;4.90;;
64959;SDS011;51487;52.266;10.542;2023-06-19T10:50:55;5.20;;;4.35;;
64959;SDS011;51487;52.266;10.542;2023-06-19T10:55:59;6.25;;;4.47;;
64959;SDS011;51487;52.266;10.542;2023-06-19T10:58:27;6.22;;;4.68;;
64959;SDS011;51487;52.266;10.542;2023-06-19T11:00:54;7.05;;;4.47;;
64959;SDS011;51487;52.266;10.542;2023-06-19T11:03:20;5.50;;;4.50;;
64959;SDS011;51487;52.266;10.542;2023-06-19T11:05:46;5.65;;;4.72;;
64959;SDS011;51487;52.266;10.542;2023-06-19T11:08:17;5.03;;;4.28;;
64959;SDS011;51487;52.266;10.542;2023-06-19T11:10:48;6.70;;;4.32;;
64959;SDS011;51487;52.266;10.542;2023-06-19T11:13:16;6.20;;;4.60;;
64959;SDS011;51487;52.266;10.542;2023-06-19T11:15:44;6.20;;;4.72;;
64959;SDS011;51487;52.266;10.542;2023-06-19T11:18:11;6.10;;;4.60;;
64959;SDS011;51487;52.266;10.542;2023-06-19T11:20:49;6.10;;;4.82;;
64959;SDS011;51487;52.266;10.542;2023-06-19T11:23:24;5.22;;;4.40;;
64959;SDS011;51487;52.266;10.542;2023-06-19T11:26:04;5.80;;;5.13;;
64959;SDS011;51487;52.266;10.542;2023-06-19T11:28:31;9.05;;;5.18;;
64959;SDS011;51487;52.266;10.542;2023-06-19T11:31:01;6.50;;;4.70;;
64959;SDS011;51487;52.266;10.542;2023-06-19T11:33:28;7.35;;;4.72;;
64959;SDS011;51487;52.266;10.542;2023-06-19T11:35:58;8.30;;;5.05;;
64959;SDS011;51487;52.266;10.542;2023-06-19T11:38:26;8.60;;;4.90;;
64959;SDS011;51487;52.266;10.542;2023-06-19T11:40:53;5.10;;;4.53;;
64959;SDS011;51487;52.266;10.542;2023-06-19T11:43:28;5.35;;;4.70;;
64959;SDS011;51487;52.266;10.542;2023-06-19T11:46:05;5.18;;;4.65;;
64959;SDS011;51487;52.266;10.542;2023-06-19T11:48:38;5.85;;;4.78;;
64959;SDS011;51487;52.266;10.542;2023-06-19T11:51:04;5.60;;;5.00;;
64959;SDS011;51487;52.266;10.542;2023-06-19T11:53:29;4.82;;;4.40;;
64959;SDS011;51487;52.266;10.542;2023-06-19T11:55:55;8.43;;;4.82;;
64959;SDS011;51487;52.266;10.542;2023-06-19T11:58:21;5.95;;;4.13;;
64959;SDS011;51487;52.266;10.542;2023-06-19T12:00:47;7.10;;;4.40;;
64959;SDS011;51487;52.266;10.542;2023-06-19T12:03:13;4.90;;;4.40;;
64959;SDS011;51487;52.266;10.542;2023-06-19T12:05:39;4.72;;;4.22;;
64959;SDS011;51487;52.266;10.542;2023-06-19T12:08:05;7.88;;;4.60;;
64959;SDS011;51487;52.266;10.542;2023-06-19T12:10:31;5.03;;;4.25;;
64959;SDS011;51487;52.266;10.542;2023-06-19T12:12:59;5.47;;;4.90;;
64959;SDS011;51487;52.266;10.542;2023-06-19T12:15:25;6.47;;;4.65;;
64959;SDS011;51487;52.266;10.542;2023-06-19T12:17:51;5.32;;;4.45;;
64959;SDS011;51487;52.266;10.542;2023-06-19T12:20:17;4.78;;;4.25;;
64959;SDS011;51487;52.266;10.542;2023-06-19T12:22:43;5.63;;;4.20;;
64959;SDS011;51487;52.266;10.542;2023-06-19T12:25:09;5.07;;;4.47;;
64959;SDS011;51487;52.266;10.542;2023-06-19T12:27:35;7.47;;;4.38;;
64959;SDS011;51487;52.266;10.542;2023-06-19T12:30:05;5.05;;;4.35;;
64959;SDS011;51487;52.266;10.542;2023-06-19T12:32:31;5.95;;;4.75;;
64959;SDS011;51487;52.266;10.542;2023-06-19T12:34:56;6.30;;;4.53;;
64959;SDS011;51487;52.266;10.542;2023-06-19T12:37:22;6.35;;;4.50;;
64959;SDS011;51487;52.266;10.542;2023-06-19T12:39:49;5.88;;;4.90;;
64959;SDS011;51487;52.266;10.542;2023-06-19T12:42:16;5.70;;;4.60;;
64959;SDS011;51487;52.266;10.542;2023-06-19T12:44:42;5.70;;;4.03;;
64959;SDS011;51487;52.266;10.542;2023-06-19T12:47:09;6.57;;;4.32;;
64959;SDS011;51487;52.266;10.542;2023-06-19T12:49:35;5.47;;;4.32;;
64959;SDS011;51487;52.266;10.542;2023-06-19T12:52:00;6.63;;;4.53;;
64959;SDS011;51487;52.266;10.542;2023-06-19T12:54:26;6.40;;;4.22;;
64959;SDS011;51487;52.266;10.542;2023-06-19T12:56:52;5.00;;;4.05;;
64959;SDS011;51487;52.266;10.542;2023-06-19T12:59:18;4.40;;;4.00;;
64959;SDS011;51487;52.266;10.542;2023-06-19T13:01:44;4.70;;;4.30;;
64959;SDS011;51487;52.266;10.542;2023-06-19T13:04:10;4.85;;;4.43;;
64959;SDS011;51487;52.266;10.542;2023-06-19T13:06:37;6.88;;;4.78;;
64959;SDS011;51487;52.266;10.542;2023-06-19T13:09:03;4.72;;;4.00;;
64959;SDS011;51487;52.266;10.542;2023-06-19T13:11:30;6.35;;;4.15;;
64959;SDS011;51487;52.266;10.542;2023-06-19T13:13:56;6.75;;;4.65;;
64959;SDS011;51487;52.266;10.542;2023-06-19T13:16:22;4.65;;;3.90;;
64959;SDS011;51487;52.266;10.542;2023-06-19T13:18:50;6.65;;;4.22;;
64959;SDS011;51487;52.266;10.542;2023-06-19T13:21:16;5.43;;;4.13;;
64959;SDS011;51487;52.266;10.542;2023-06-19T13:23:42;5.18;;;4.30;;
64959;SDS011;51487;52.266;10.542;2023-06-19T13:26:08;4.55;;;3.72;;
64959;SDS011;51487;52.266;10.542;2023-06-19T13:28:33;5.95;;;4.25;;
64959;SDS011;51487;52.266;10.542;2023-06-19T13:30:59;4.97;;;4.25;;
64959;SDS011;51487;52.266;10.542;2023-06-19T13:33:25;7.78;;;3.90;;
64959;SDS011;51487;52.266;10.542;2023-06-19T13:35:51;4.50;;;3.55;;
64959;SDS011;51487;52.266;10.542;2023-06-19T13:38:17;5.18;;;3.53;;
64959;SDS011;51487;52.266;10.542;2023-06-19T13:40:43;4.38;;;3.80;;
64959;SDS011;51487;52.266;10.542;2023-06-19T13:43:09;4.97;;;3.63;;
64959;SDS011;51487;52.266;10.542;2023-06-19T13:45:35;4.28;;;3.72;;
64959;SDS011;51487;52.266;10.542;2023-06-19T13:48:03;9.82;;;4.10;;
64959;SDS011;51487;52.266;10.542;2023-06-19T13:50:29;5.40;;;3.58;;
64959;SDS011;51487;52.266;10.542;2023-06-19T13:52:54;7.50;;;3.83;;
64959;SDS011;51487;52.266;10.542;2023-06-19T13:55:20;6.25;;;3.75;;
64959;SDS011;51487;52.266;10.542;2023-06-19T13:57:46;4.97;;;3.58;;
64959;SDS011;51487;52.266;10.542;2023-06-19T14:00:12;4.50;;;3.47;;
64959;SDS011;51487;52.266;10.542;2023-06-19T14:02:38;4.43;;;3.70;;
64959;SDS011;51487;52.266;10.542;2023-06-19T14:05:05;7.15;;;3.75;;
64959;SDS011;51487;52.266;10.542;2023-06-19T14:07:32;4.35;;;3.55;;
64959;SDS011;51487;52.266;10.542;2023-06-19T14:09:59;4.95;;;3.35;;
64959;SDS011;51487;52.266;10.542;2023-06-19T14:12:24;5.50;;;3.40;;
64959;SDS011;51487;52.266;10.542;2023-06-19T14:14:51;4.65;;;3.88;;
64959;SDS011;51487;52.266;10.542;2023-06-19T14:17:16;5.80;;;4.05;;
64959;SDS011;51487;52.266;10.542;2023-06-19T14:19:42;7.13;;;3.65;;
64959;SDS011;51487;52.266;10.542;2023-06-19T14:22:07;4.82;;;3.30;;
64959;SDS011;51487;52.266;10.542;2023-06-19T14:24:33;4.45;;;3.30;;
64959;SDS011;51487;52.266;10.542;2023-06-19T14:26:59;4.47;;;3.05;;
64959;SDS011;51487;52.266;10.542;2023-06-19T14:29:24;4.88;;;2.65;;
64959;SDS011;51487;52.266;10.542;2023-06-19T14:31:52;2.75;;;2.55;;
64959;SDS011;51487;52.266;10.542;2023-06-19T14:34:18;2.75;;;2.55;;
64959;SDS011;51487;52.266;10.542;2023-06-19T14:36:45;5.65;;;2.60;;
64959;SDS011;51487;52.266;10.542;2023-06-19T14:39:11;4.50;;;2.53;;
64959;SDS011;51487;52.266;10.542;2023-06-19T14:41:37;3.33;;;2.35;;
64959;SDS011;51487;52.266;10.542;2023-06-19T14:44:04;3.40;;;2.50;;
64959;SDS011;51487;52.266;10.542;2023-06-19T14:46:31;3.00;;;2.67;;
64959;SDS011;51487;52.266;10.542;2023-06-19T14:48:57;3.92;;;2.50;;